Star Mariella — V7KK3 — position and weather

sailwx.info

Track history (hours):
 
Tides and Currents Weather Stations Pressure Air Temp Water Temp Dewpoint Dewpoint Depression Visibility Wind Speed Wind Dir Waves Ship Positions

Star Mariella

Last reported at 2017-Jun-06 18:26 UTC. Time now 2017-Jun-27 21:01 UTC.
Position N 49°10' W 127°20'.
Warning: this ship's position is 21 days out of date.

Length 229 m; draft 13.2 m.

Type: Cargo ship. MMSI: 538002632.

Date/timePositionNaut miles runAvg speedWind from/ knotsBaromVisibWave heightAir tempDewpointWater temp
2017-Jun-06 18:26N 49°10' W 127°20'4 9.7
2017-Jun-06 17:59N 49°08' W 127°14'5 9.9
2017-Jun-06 17:30N 49°06' W 127°08'5 9.9
2017-Jun-06 17:00N 49°04' W 127°01'510.2
2017-Jun-06 16:29N 49°01' W 126°54'510.1
2017-Jun-06 15:59N 48°59' W 126°47'510.4
2017-Jun-06 15:30N 48°57' W 126°40'510.8
2017-Jun-06 15:00N 48°54' W 126°33'611.0
2017-Jun-06 14:31N 48°52' W 126°25'1111.1
2017-Jun-06 13:30N 48°47' W 126°10'511.0
2017-Jun-06 13:00N 48°44' W 126°03'611.0
2017-Jun-06 12:30N 48°42' W 125°55'510.9
2017-Jun-06 12:00N 48°40' W 125°48'510.4
2017-Jun-06 11:30N 48°37' W 125°41'510.5
2017-Jun-06 11:00N 48°35' W 125°33'510.7
2017-Jun-06 10:30N 48°32' W 125°26'5 9.8
2017-Jun-06 10:00N 48°30' W 125°20'510.7
2017-Jun-06 09:30N 48°30' W 125°12'510.9
2017-Jun-06 09:00N 48°31' W 125°04'611.1
2017-Jun-06 08:30N 48°31' W 124°55'511.0
2017-Jun-06 08:00N 48°31' W 124°47'510.9
2017-Jun-06 07:30N 48°29' W 124°39'510.7
2017-Jun-06 07:00N 48°27' W 124°32'510.5
2017-Jun-06 06:30N 48°25' W 124°24'510.8
2017-Jun-06 06:00N 48°23' W 124°17'510.9
2017-Jun-06 05:30N 48°21' W 124°09'510.8
2017-Jun-06 05:00N 48°19' W 124°02'510.9
2017-Jun-06 04:30N 48°17' W 123°54'510.8
2017-Jun-06 04:00N 48°17' W 123°46'611.1
2017-Jun-06 03:30N 48°16' W 123°38'610.9
2017-Jun-06 02:59N 48°14' W 123°29'511.0
2017-Jun-06 02:30N 48°10' W 123°24'3 6.7
2017-Jun-06 02:00N 48°09' W 123°19'712.9
2017-Jun-06 01:28N 48°12' W 123°10'611.9
2017-Jun-06 00:59N 48°12' W 123°01'612.9
2017-Jun-06 00:30N 48°12' W 122°52'612.3
2017-Jun-06 00:00N 48°09' W 122°43'611.6
2017-Jun-05 23:29N 48°04' W 122°38'611.7
2017-Jun-05 23:00N 47°59' W 122°35'611.6
2017-Jun-05 22:30N 47°55' W 122°30'611.7
2017-Jun-05 22:00N 47°49' W 122°27'611.4
2017-Jun-05 21:30N 47°44' W 122°26'511.0
2017-Jun-05 21:00N 47°38' W 122°26'3 4.8
2017-Jun-05 20:28N 47°37' W 122°22'0 0.1
2017-Jun-05 19:58N 47°37' W 122°22'0 0.0
2017-Jun-05 19:29N 47°37' W 122°22'0 0.0
2017-Jun-05 18:59N 47°37' W 122°22'0 0.0
2017-Jun-05 18:28N 47°37' W 122°22'0 0.0
2017-Jun-05 17:59N 47°37' W 122°22'0 0.0
2017-Jun-05 17:29N 47°37' W 122°22'0 0.0
2017-Jun-05 16:58N 47°37' W 122°22'0 0.0
2017-Jun-05 16:29N 47°37' W 122°22'0 0.0
2017-Jun-05 15:59N 47°37' W 122°22'0 0.0
2017-Jun-05 15:29N 47°37' W 122°22'0 0.0
2017-Jun-05 14:59N 47°37' W 122°22'0 0.0
2017-Jun-05 13:59N 47°37' W 122°22'0 0.0
2017-Jun-05 13:29N 47°37' W 122°22'0 0.0
2017-Jun-05 12:58N 47°37' W 122°22'0 0.0
2017-Jun-05 12:29N 47°37' W 122°22'0 0.0
2017-Jun-05 11:59N 47°37' W 122°22'0 0.0
2017-Jun-05 11:29N 47°37' W 122°22'0 0.0
2017-Jun-05 10:59N 47°37' W 122°22'0 0.0
2017-Jun-05 10:29N 47°37' W 122°22'0 0.0
2017-Jun-05 09:59N 47°37' W 122°22'0 0.0
2017-Jun-05 09:29N 47°37' W 122°22'0 0.0
2017-Jun-05 08:59N 47°37' W 122°22'0 0.0
2017-Jun-05 08:29N 47°37' W 122°22'0 0.0
2017-Jun-05 07:58N 47°37' W 122°22'0 0.0
2017-Jun-05 07:29N 47°37' W 122°22'0 0.0
2017-Jun-05 06:59N 47°37' W 122°22'0 0.0
2017-Jun-05 06:29N 47°37' W 122°22'0 0.0
2017-Jun-05 05:58N 47°37' W 122°22'0 0.0
2017-Jun-05 05:29N 47°37' W 122°22'0 0.0
2017-Jun-05 04:59N 47°37' W 122°22'0 0.0
2017-Jun-05 04:29N 47°37' W 122°22'0 0.0
2017-Jun-05 03:58N 47°37' W 122°22'0 0.0
2017-Jun-05 03:28N 47°37' W 122°22'0 0.0
2017-Jun-05 02:59N 47°37' W 122°22'0 0.0
2017-Jun-05 02:28N 47°37' W 122°22'0 0.0
2017-Jun-05 01:58N 47°37' W 122°22'0 0.0
2017-Jun-05 01:29N 47°37' W 122°22'0 0.0
2017-Jun-05 00:59N 47°37' W 122°22'0 0.0
2017-Jun-05 00:29N 47°37' W 122°22'0 0.0
2017-Jun-04 23:59N 47°37' W 122°22'0 0.0
2017-Jun-04 23:29N 47°37' W 122°22'0 0.0
2017-Jun-04 23:00N 47°37' W 122°22'0 0.0
2017-Jun-04 22:28N 47°37' W 122°22'0 0.0
2017-Jun-04 21:58N 47°37' W 122°22'0 0.0
2017-Jun-04 21:28N 47°37' W 122°22'0 0.0
2017-Jun-04 20:58N 47°37' W 122°22'0 0.0
2017-Jun-04 20:28N 47°37' W 122°22'0 0.0
2017-Jun-04 19:58N 47°37' W 122°22'0 0.0
2017-Jun-04 19:28N 47°37' W 122°22'0 0.0
2017-Jun-04 18:58N 47°37' W 122°22'0 0.0
2017-Jun-04 18:28N 47°37' W 122°22'0 0.0
2017-Jun-04 17:58N 47°37' W 122°22'0 0.0
2017-Jun-04 17:28N 47°37' W 122°22'0 0.0
2017-Jun-04 16:58N 47°37' W 122°22'0 0.0
2017-Jun-04 16:28N 47°37' W 122°22'0 0.0
2017-Jun-04 15:58N 47°37' W 122°22'0 0.0
2017-Jun-04 15:28N 47°37' W 122°22'0 0.0
2017-Jun-04 14:58N 47°37' W 122°22'0 0.0
2017-Jun-04 13:58N 47°37' W 122°22'0 0.0
2017-Jun-04 13:28N 47°37' W 122°22'0 0.0
2017-Jun-04 12:58N 47°37' W 122°22'0 0.0
2017-Jun-04 12:28N 47°37' W 122°22'0 0.0
2017-Jun-04 11:58N 47°37' W 122°22'0 0.0
2017-Jun-04 11:28N 47°37' W 122°22'0 0.0
2017-Jun-04 10:58N 47°37' W 122°22'0 0.0
2017-Jun-04 10:28N 47°37' W 122°22'0 0.0
2017-Jun-04 09:58N 47°37' W 122°22'0 0.0
2017-Jun-04 09:28N 47°37' W 122°22'0 0.0
2017-Jun-04 08:58N 47°37' W 122°22'0 0.0
2017-Jun-04 08:28N 47°37' W 122°22'0 0.0
2017-Jun-04 07:58N 47°37' W 122°22'0 0.0
2017-Jun-04 07:28N 47°37' W 122°22'0 0.0
2017-Jun-04 06:58N 47°37' W 122°22'0 0.0
2017-Jun-04 06:28N 47°37' W 122°22'0 0.0
2017-Jun-04 05:58N 47°37' W 122°22'0 0.0
2017-Jun-04 05:28N 47°37' W 122°22'0 0.0
2017-Jun-04 04:58N 47°37' W 122°22'0 0.0
2017-Jun-04 04:28N 47°37' W 122°22'0 0.0
2017-Jun-04 03:58N 47°37' W 122°22'0 0.0
2017-Jun-04 03:28N 47°37' W 122°22'0 0.0
2017-Jun-04 02:58N 47°37' W 122°22'0 0.0
2017-Jun-04 02:28N 47°37' W 122°22'0 0.0
2017-Jun-04 01:58N 47°37' W 122°22'0 0.0
2017-Jun-04 01:28N 47°37' W 122°22'0 0.0
2017-Jun-04 00:55N 47°37' W 122°22'0 0.0
2017-Jun-04 00:28N 47°37' W 122°22'0 0.0
2017-Jun-03 23:55N 47°37' W 122°22'0 0.0
2017-Jun-03 23:28N 47°37' W 122°22'0 0.0
2017-Jun-03 22:52N 47°37' W 122°22'0 0.0
2017-Jun-03 22:28N 47°37' W 122°22'0 0.0
2017-Jun-03 21:58N 47°37' W 122°22'0 0.0
2017-Jun-03 21:28N 47°37' W 122°22'0 0.0
2017-Jun-03 20:58N 47°37' W 122°22'0 0.0
2017-Jun-03 20:25N 47°37' W 122°22'0 0.0
2017-Jun-03 19:58N 47°37' W 122°22'0 0.0
2017-Jun-03 19:28N 47°37' W 122°22'0 0.0
2017-Jun-03 18:58N 47°37' W 122°22'0 0.0
2017-Jun-03 18:25N 47°37' W 122°22'0 0.0
2017-Jun-03 17:58N 47°37' W 122°22'0 0.0
2017-Jun-03 17:25N 47°37' W 122°22'0 0.0
2017-Jun-03 16:58N 47°37' W 122°22'0 0.0
2017-Jun-03 16:22N 47°37' W 122°22'0 0.0
2017-Jun-03 15:58N 47°37' W 122°22'0 0.0
2017-Jun-03 15:28N 47°37' W 122°22'0 0.0
2017-Jun-03 14:58N 47°37' W 122°22'0 0.0
2017-Jun-03 13:55N 47°37' W 122°22'0 0.0
2017-Jun-03 13:28N 47°37' W 122°22'0 0.0
2017-Jun-03 12:58N 47°37' W 122°22'0 0.0
2017-Jun-03 12:28N 47°37' W 122°22'0 0.0
2017-Jun-03 11:58N 47°37' W 122°22'0 0.0
2017-Jun-03 11:28N 47°37' W 122°22'0 0.0
2017-Jun-03 10:58N 47°37' W 122°22'0 0.0
2017-Jun-03 10:28N 47°37' W 122°22'0 0.0
2017-Jun-03 09:58N 47°37' W 122°22'0 0.0
2017-Jun-03 09:28N 47°37' W 122°22'0 0.0
2017-Jun-03 08:58N 47°37' W 122°22'0 0.0
2017-Jun-03 08:28N 47°37' W 122°22'0 0.0
2017-Jun-03 07:58N 47°37' W 122°22'0 0.0
2017-Jun-03 07:28N 47°37' W 122°22'0 0.0
2017-Jun-03 06:58N 47°37' W 122°22'0 0.0
2017-Jun-03 06:28N 47°37' W 122°22'0 0.0
2017-Jun-03 05:58N 47°37' W 122°22'0 0.0
2017-Jun-03 05:28N 47°37' W 122°22'0 0.0
2017-Jun-03 04:58N 47°37' W 122°22'0 0.0
2017-Jun-03 04:28N 47°37' W 122°22'0 0.0
2017-Jun-03 03:58N 47°37' W 122°22'0 0.0
2017-Jun-03 03:28N 47°37' W 122°22'0 0.0
2017-Jun-03 02:58N 47°37' W 122°22'0 0.0
2017-Jun-03 02:28N 47°37' W 122°22'0 0.0
2017-Jun-03 01:58N 47°37' W 122°22'0 0.0
2017-Jun-03 01:28N 47°37' W 122°22'0 0.0
2017-Jun-03 00:58N 47°37' W 122°22'0 0.0
2017-Jun-03 00:28N 47°37' W 122°22'0 0.0
2017-Jun-02 23:58N 47°37' W 122°22'0 0.0
2017-Jun-02 23:28N 47°37' W 122°22'0 0.0
2017-Jun-02 22:58N 47°37' W 122°22'0 0.0
2017-Jun-02 22:28N 47°37' W 122°22'0 0.0
2017-Jun-02 21:58N 47°37' W 122°22'0 0.0
2017-Jun-02 21:28N 47°37' W 122°22'0 0.0
2017-Jun-02 20:58N 47°37' W 122°22'0 0.0
2017-Jun-02 20:28N 47°37' W 122°22'0 0.0
2017-Jun-02 19:58N 47°37' W 122°22'0 0.0
2017-Jun-02 19:28N 47°37' W 122°22'0 0.0
2017-Jun-02 18:58N 47°37' W 122°22'0 0.0
2017-Jun-02 18:28N 47°37' W 122°22'0 0.0
2017-Jun-02 17:58N 47°37' W 122°22'0 0.0
2017-Jun-02 17:28N 47°37' W 122°22'0 0.0
2017-Jun-02 16:58N 47°37' W 122°22'0 0.0
2017-Jun-02 16:28N 47°37' W 122°22'0 0.0
2017-Jun-02 15:58N 47°37' W 122°22'0 0.0
2017-Jun-02 15:28N 47°37' W 122°22'0 0.0
2017-Jun-02 14:58N 47°37' W 122°22'0 0.0
2017-Jun-02 14:28N 47°37' W 122°22'0 0.0
2017-Jun-02 13:28N 47°37' W 122°22'0 0.0
2017-Jun-02 12:58N 47°37' W 122°22'0 0.0
2017-Jun-02 12:28N 47°37' W 122°22'0 0.0
2017-Jun-02 11:58N 47°37' W 122°22'0 0.0
2017-Jun-02 11:28N 47°37' W 122°22'0 0.0
2017-Jun-02 10:58N 47°37' W 122°22'0 0.0
2017-Jun-02 10:28N 47°37' W 122°22'0 0.0
2017-Jun-02 09:58N 47°37' W 122°22'0 0.0
2017-Jun-02 09:28N 47°37' W 122°22'0 0.0
2017-Jun-02 08:58N 47°37' W 122°22'0 0.0
2017-Jun-02 08:28N 47°37' W 122°22'0 0.0
2017-Jun-02 07:58N 47°37' W 122°22'0 0.0
2017-Jun-02 07:28N 47°37' W 122°22'0 0.0
2017-Jun-02 06:58N 47°37' W 122°22'0 0.0
2017-Jun-02 06:28N 47°37' W 122°22'0 0.0
2017-Jun-02 05:58N 47°37' W 122°22'0 0.0
2017-Jun-02 05:28N 47°37' W 122°22'0 0.0
2017-Jun-02 04:58N 47°37' W 122°22'0 0.0
2017-Jun-02 04:28N 47°37' W 122°22'0 0.0
2017-Jun-02 03:58N 47°37' W 122°22'0 0.0
2017-Jun-02 03:28N 47°37' W 122°22'0 0.0
2017-Jun-02 02:58N 47°37' W 122°22'0 0.0
2017-Jun-02 02:28N 47°37' W 122°22'0 0.0
2017-Jun-02 01:58N 47°37' W 122°22'0 0.0
2017-Jun-02 01:28N 47°37' W 122°22'0 0.0
2017-Jun-02 00:58N 47°37' W 122°22'0 0.0
2017-Jun-02 00:28N 47°37' W 122°22'0 0.0
2017-Jun-01 23:58N 47°37' W 122°22'0 0.1
2017-Jun-01 23:28N 47°37' W 122°22'0 0.4
2017-Jun-01 22:58N 47°37' W 122°22'0 0.0
2017-Jun-01 22:28N 47°37' W 122°22'0 0.0
2017-Jun-01 21:58N 47°37' W 122°22'0 0.0
2017-Jun-01 21:28N 47°37' W 122°22'0 0.1
2017-Jun-01 20:58N 47°37' W 122°22'0 0.1
2017-Jun-01 20:28N 47°37' W 122°22'0 0.1
2017-Jun-01 19:58N 47°37' W 122°22'0 0.1
2017-Jun-01 19:28N 47°37' W 122°22'0 0.0
2017-Jun-01 18:58N 47°37' W 122°22'0 0.0
2017-Jun-01 18:28N 47°37' W 122°22'0 0.0
2017-Jun-01 17:58N 47°37' W 122°22'0 0.1
2017-Jun-01 17:28N 47°37' W 122°22'0 0.0
2017-Jun-01 16:58N 47°37' W 122°22'0 0.1
2017-Jun-01 16:28N 47°37' W 122°22'0 0.2
2017-Jun-01 15:58N 47°37' W 122°23'0 0.1
2017-Jun-01 15:28N 47°37' W 122°23'0 0.1
2017-Jun-01 14:58N 47°37' W 122°23'0 0.1
2017-Jun-01 13:58N 47°37' W 122°22'0 0.1
2017-Jun-01 13:28N 47°37' W 122°22'0 0.1
2017-Jun-01 12:58N 47°37' W 122°23'0 0.1
2017-Jun-01 12:28N 47°37' W 122°22'0 0.0
2017-Jun-01 11:58N 47°37' W 122°22'0 0.1
2017-Jun-01 11:28N 47°37' W 122°23'0 0.0
2017-Jun-01 10:58N 47°37' W 122°23'0 0.0
2017-Jun-01 10:28N 47°37' W 122°23'0 0.0
2017-Jun-01 09:58N 47°37' W 122°23'0 0.1
2017-Jun-01 09:28N 47°37' W 122°23'0 0.1
2017-Jun-01 08:58N 47°37' W 122°23'0 0.0
2017-Jun-01 08:28N 47°37' W 122°23'0 0.0
2017-Jun-01 07:58N 47°37' W 122°23'0 0.0
2017-Jun-01 07:28N 47°37' W 122°23'0 0.0
2017-Jun-01 06:58N 47°37' W 122°23'0 0.0
2017-Jun-01 06:28N 47°37' W 122°23'0 0.0
2017-Jun-01 05:58N 47°37' W 122°23'0 0.0
2017-Jun-01 05:28N 47°37' W 122°23'0 0.2
2017-Jun-01 04:58N 47°37' W 122°22'0 0.1
2017-Jun-01 04:28N 47°37' W 122°22'0 0.0
2017-Jun-01 03:58N 47°37' W 122°22'0 0.1
2017-Jun-01 03:28N 47°37' W 122°22'0 0.1
2017-Jun-01 02:58N 47°37' W 122°22'0 0.0
2017-Jun-01 02:28N 47°37' W 122°22'0 0.0
2017-Jun-01 01:58N 47°37' W 122°22'0 0.0
2017-Jun-01 01:28N 47°37' W 122°22'0 0.0
2017-Jun-01 00:58N 47°37' W 122°22'0 0.0
2017-Jun-01 00:28N 47°37' W 122°22'0 0.1
2017-May-31 23:58N 47°37' W 122°22'0 0.2
2017-May-31 23:28N 47°37' W 122°22'0 0.2
2017-May-31 22:58N 47°37' W 122°23'0 0.0
2017-May-31 22:28N 47°37' W 122°23'0 0.0
2017-May-31 21:58N 47°37' W 122°23'0 0.0
2017-May-31 21:28N 47°37' W 122°23'0 0.0
2017-May-31 20:58N 47°37' W 122°23'0 0.0
2017-May-31 20:28N 47°37' W 122°23'0 0.1
2017-May-31 19:58N 47°37' W 122°23'0 0.0
2017-May-31 19:28N 47°37' W 122°23'0 0.1
2017-May-31 18:58N 47°37' W 122°23'0 0.0
2017-May-31 18:28N 47°37' W 122°23'0 0.0
2017-May-31 17:58N 47°37' W 122°23'0 0.1
2017-May-31 17:28N 47°37' W 122°22'0 0.0
2017-May-31 16:58N 47°37' W 122°22'0 0.1
2017-May-31 16:25N 47°37' W 122°22'0 0.1
2017-May-31 15:58N 47°37' W 122°22'0 0.1
2017-May-31 15:28N 47°37' W 122°22'0 0.1
2017-May-31 14:58N 47°37' W 122°22'0 0.0
2017-May-31 13:58N 47°37' W 122°22'0 0.3
2017-May-31 13:28N 47°37' W 122°22'0 0.1
2017-May-31 12:58N 47°37' W 122°22'0 0.0
2017-May-31 12:28N 47°37' W 122°22'0 0.1
2017-May-31 11:58N 47°37' W 122°23'0 0.0
2017-May-31 11:28N 47°37' W 122°23'0 0.0
2017-May-31 10:58N 47°37' W 122°23'0 0.0
2017-May-31 10:28N 47°37' W 122°23'0 0.0
2017-May-31 09:58N 47°37' W 122°23'0 0.0
2017-May-31 09:28N 47°37' W 122°23'0 0.0
2017-May-31 08:58N 47°37' W 122°23'0 0.2
2017-May-31 08:28N 47°37' W 122°22'0 0.0
2017-May-31 07:58N 47°37' W 122°22'0 0.0
2017-May-31 07:28N 47°37' W 122°22'0 0.0
2017-May-31 06:58N 47°37' W 122°22'0 0.0
2017-May-31 06:28N 47°37' W 122°22'0 0.1
2017-May-31 05:58N 47°37' W 122°22'0 0.1
2017-May-31 05:28N 47°37' W 122°23'0 0.1
2017-May-31 04:58N 47°37' W 122°23'0 0.0
2017-May-31 04:28N 47°37' W 122°23'0 0.0
2017-May-31 03:58N 47°37' W 122°23'0 0.1
2017-May-31 03:28N 47°37' W 122°23'0 0.0
2017-May-31 02:58N 47°37' W 122°23'0 0.2
2017-May-31 02:28N 47°37' W 122°23'0 0.2
2017-May-31 01:58N 47°37' W 122°23'0 0.2
2017-May-31 01:28N 47°37' W 122°22'0 0.1
2017-May-31 00:58N 47°37' W 122°22'0 0.2
2017-May-31 00:28N 47°37' W 122°22'0 0.2
2017-May-30 23:58N 47°37' W 122°22'0 0.1
2017-May-30 23:28N 47°37' W 122°22'0 0.1
2017-May-30 22:58N 47°37' W 122°22'0 0.0
2017-May-30 22:28N 47°37' W 122°22'0 0.1
2017-May-30 21:58N 47°37' W 122°23'0 0.1
2017-May-30 21:28N 47°37' W 122°22'0 0.0
2017-May-30 20:58N 47°37' W 122°22'0 0.1
2017-May-30 20:28N 47°37' W 122°23'0 0.0
2017-May-30 19:58N 47°37' W 122°23'0 0.1
2017-May-30 19:28N 47°37' W 122°22'0 0.2
2017-May-30 18:58N 47°37' W 122°22'0 0.1
2017-May-30 18:28N 47°37' W 122°22'0 0.1
2017-May-30 17:58N 47°37' W 122°22'0 0.1
2017-May-30 17:28N 47°37' W 122°23'0 0.0
2017-May-30 16:58N 47°37' W 122°23'0 0.0
2017-May-30 16:28N 47°37' W 122°23'0 0.2
2017-May-30 15:58N 47°37' W 122°22'0 0.0
2017-May-30 15:28N 47°37' W 122°22'0 0.3
2017-May-30 14:58N 47°37' W 122°22'0 0.0
2017-May-30 13:58N 47°37' W 122°22'0 0.1
2017-May-30 13:28N 47°37' W 122°22'0 0.1
2017-May-30 12:58N 47°37' W 122°22'0 0.0
2017-May-30 12:28N 47°37' W 122°22'0 0.1
2017-May-30 11:58N 47°37' W 122°22'0 0.2
2017-May-30 11:28N 47°37' W 122°22'0 0.1
2017-May-30 10:55N 47°37' W 122°22'0 0.1
2017-May-30 10:28N 47°37' W 122°22'0 0.1
2017-May-30 09:58N 47°37' W 122°22'0 0.0
2017-May-30 09:28N 47°37' W 122°22'0 0.2
2017-May-30 08:58N 47°37' W 122°22'0 0.1
2017-May-30 08:25N 47°37' W 122°22'0 0.1
2017-May-30 07:58N 47°37' W 122°22'0 0.0
2017-May-30 07:28N 47°37' W 122°22'0 0.0
2017-May-30 06:58N 47°37' W 122°22'0 0.0
2017-May-30 06:30N 47°37' W 122°22'0 0.0
2017-May-30 06:00N 47°37' W 122°22'0 0.1
2017-May-30 05:30N 47°37' W 122°22'0 0.2
2017-May-30 05:00N 47°37' W 122°23'0 0.2
2017-May-30 04:30N 47°37' W 122°23'2 3.6
2017-May-30 04:00N 47°38' W 122°25'510.1
2017-May-30 03:30N 47°42' W 122°28'713.8
2017-May-30 03:01N 47°49' W 122°28'714.6
2017-May-30 02:31N 47°56' W 122°32'815.5
2017-May-30 02:01N 48°02' W 122°39'815.4
2017-May-30 01:30N 48°09' W 122°44'815.4
2017-May-30 01:00N 48°11' W 122°55'714.7
2017-May-30 00:30N 48°12' W 123°06'714.8
2017-May-30 00:00N 48°11' W 123°17'510.0
2017-May-29 23:28N 48°10' W 123°25'3 5.9
2017-May-29 22:56N 48°12' W 123°29'4 8.2
2017-May-29 22:29N 48°13' W 123°35'611.6
2017-May-29 21:58N 48°13' W 123°44'511.6
2017-May-29 21:31N 48°14' W 123°52'510.6
2017-May-29 21:00N 48°15' W 123°59'612.4
2017-May-29 20:30N 48°17' W 124°08'611.6
2017-May-29 20:01N 48°20' W 124°16'511.0
2017-May-29 19:31N 48°22' W 124°23'511.0
2017-May-29 19:01N 48°24' W 124°31'510.8
2017-May-29 18:31N 48°27' W 124°38'5 9.9
2017-May-29 18:00N 48°29' W 124°45'510.1
2017-May-29 17:30N 48°29' W 124°53'5 9.6
2017-May-29 17:00N 48°28' W 124°60'510.7
2017-May-29 16:30N 48°28' W 125°08'612.2
2017-May-29 16:01N 48°28' W 125°17'612.1
2017-May-29 15:30N 48°29' W 125°26'611.5
2017-May-29 15:00N 48°31' W 125°34'1211.7
2017-May-29 14:01N 48°34' W 125°51'612.1
2017-May-29 13:30N 48°35' W 126°00'612.0
2017-May-29 13:00N 48°36' W 126°09'612.1
2017-May-29 12:31N 48°38' W 126°18'611.8
2017-May-29 12:01N 48°39' W 126°27'611.8
2017-May-29 11:30N 48°41' W 126°36'612.3
2017-May-29 11:00N 48°42' W 126°44'612.1
2017-May-29 10:30N 48°44' W 126°54'611.9
2017-May-29 10:00N 48°45' W 127°02'1311.8
2017-May-29 08:54N 48°48' W 127°21'712.2
2017-May-29 08:19N 48°50' W 127°32'512.0
2017-May-29 07:53N 48°51' W 127°39'812.0
2017-May-29 07:12N 48°53' W 127°52'  
Track history (hours):
 
Tides and Currents Weather Stations Pressure Air Temp Water Temp Dewpoint Dewpoint Depression Visibility Wind Speed Wind Dir Waves Ship Positions

Star Mariella

Last reported at 2017-Jun-06 18:26 UTC. Time now 2017-Jun-27 21:01 UTC.
Position N 49°10' W 127°20'.
Warning: this ship's position is 21 days out of date.

Length 229 m; draft 13.2 m.

Type: Cargo ship. MMSI: 538002632.

Date/timePositionNaut miles runAvg speedWind from/ knotsBaromVisibWave heightAir tempDewpointWater temp
2017-Jun-06 18:26N 49°10' W 127°20'4 9.7
2017-Jun-06 17:59N 49°08' W 127°14'5 9.9
2017-Jun-06 17:30N 49°06' W 127°08'5 9.9
2017-Jun-06 17:00N 49°04' W 127°01'510.2
2017-Jun-06 16:29N 49°01' W 126°54'510.1
2017-Jun-06 15:59N 48°59' W 126°47'510.4
2017-Jun-06 15:30N 48°57' W 126°40'510.8
2017-Jun-06 15:00N 48°54' W 126°33'611.0
2017-Jun-06 14:31N 48°52' W 126°25'1111.1
2017-Jun-06 13:30N 48°47' W 126°10'511.0
2017-Jun-06 13:00N 48°44' W 126°03'611.0
2017-Jun-06 12:30N 48°42' W 125°55'510.9
2017-Jun-06 12:00N 48°40' W 125°48'510.4
2017-Jun-06 11:30N 48°37' W 125°41'510.5
2017-Jun-06 11:00N 48°35' W 125°33'510.7
2017-Jun-06 10:30N 48°32' W 125°26'5 9.8
2017-Jun-06 10:00N 48°30' W 125°20'510.7
2017-Jun-06 09:30N 48°30' W 125°12'510.9
2017-Jun-06 09:00N 48°31' W 125°04'611.1
2017-Jun-06 08:30N 48°31' W 124°55'511.0
2017-Jun-06 08:00N 48°31' W 124°47'510.9
2017-Jun-06 07:30N 48°29' W 124°39'510.7
2017-Jun-06 07:00N 48°27' W 124°32'510.5
2017-Jun-06 06:30N 48°25' W 124°24'510.8
2017-Jun-06 06:00N 48°23' W 124°17'510.9
2017-Jun-06 05:30N 48°21' W 124°09'510.8
2017-Jun-06 05:00N 48°19' W 124°02'510.9
2017-Jun-06 04:30N 48°17' W 123°54'510.8
2017-Jun-06 04:00N 48°17' W 123°46'611.1
2017-Jun-06 03:30N 48°16' W 123°38'610.9
2017-Jun-06 02:59N 48°14' W 123°29'511.0
2017-Jun-06 02:30N 48°10' W 123°24'3 6.7
2017-Jun-06 02:00N 48°09' W 123°19'712.9
2017-Jun-06 01:28N 48°12' W 123°10'611.9
2017-Jun-06 00:59N 48°12' W 123°01'612.9
2017-Jun-06 00:30N 48°12' W 122°52'612.3
2017-Jun-06 00:00N 48°09' W 122°43'611.6
2017-Jun-05 23:29N 48°04' W 122°38'611.7
2017-Jun-05 23:00N 47°59' W 122°35'611.6
2017-Jun-05 22:30N 47°55' W 122°30'611.7
2017-Jun-05 22:00N 47°49' W 122°27'611.4
2017-Jun-05 21:30N 47°44' W 122°26'511.0
2017-Jun-05 21:00N 47°38' W 122°26'3 4.8
2017-Jun-05 20:28N 47°37' W 122°22'0 0.1
2017-Jun-05 19:58N 47°37' W 122°22'0 0.0
2017-Jun-05 19:29N 47°37' W 122°22'0 0.0
2017-Jun-05 18:59N 47°37' W 122°22'0 0.0
2017-Jun-05 18:28N 47°37' W 122°22'0 0.0
2017-Jun-05 17:59N 47°37' W 122°22'0 0.0
2017-Jun-05 17:29N 47°37' W 122°22'0 0.0
2017-Jun-05 16:58N 47°37' W 122°22'0 0.0
2017-Jun-05 16:29N 47°37' W 122°22'0 0.0
2017-Jun-05 15:59N 47°37' W 122°22'0 0.0
2017-Jun-05 15:29N 47°37' W 122°22'0 0.0
2017-Jun-05 14:59N 47°37' W 122°22'0 0.0
2017-Jun-05 13:59N 47°37' W 122°22'0 0.0
2017-Jun-05 13:29N 47°37' W 122°22'0 0.0
2017-Jun-05 12:58N 47°37' W 122°22'0 0.0
2017-Jun-05 12:29N 47°37' W 122°22'0 0.0
2017-Jun-05 11:59N 47°37' W 122°22'0 0.0
2017-Jun-05 11:29N 47°37' W 122°22'0 0.0
2017-Jun-05 10:59N 47°37' W 122°22'0 0.0
2017-Jun-05 10:29N 47°37' W 122°22'0 0.0
2017-Jun-05 09:59N 47°37' W 122°22'0 0.0
2017-Jun-05 09:29N 47°37' W 122°22'0 0.0
2017-Jun-05 08:59N 47°37' W 122°22'0 0.0
2017-Jun-05 08:29N 47°37' W 122°22'0 0.0
2017-Jun-05 07:58N 47°37' W 122°22'0 0.0
2017-Jun-05 07:29N 47°37' W 122°22'0 0.0
2017-Jun-05 06:59N 47°37' W 122°22'0 0.0
2017-Jun-05 06:29N 47°37' W 122°22'0 0.0
2017-Jun-05 05:58N 47°37' W 122°22'0 0.0
2017-Jun-05 05:29N 47°37' W 122°22'0 0.0
2017-Jun-05 04:59N 47°37' W 122°22'0 0.0
2017-Jun-05 04:29N 47°37' W 122°22'0 0.0
2017-Jun-05 03:58N 47°37' W 122°22'0 0.0
2017-Jun-05 03:28N 47°37' W 122°22'0 0.0
2017-Jun-05 02:59N 47°37' W 122°22'0 0.0
2017-Jun-05 02:28N 47°37' W 122°22'0 0.0
2017-Jun-05 01:58N 47°37' W 122°22'0 0.0
2017-Jun-05 01:29N 47°37' W 122°22'0 0.0
2017-Jun-05 00:59N 47°37' W 122°22'0 0.0
2017-Jun-05 00:29N 47°37' W 122°22'0 0.0
2017-Jun-04 23:59N 47°37' W 122°22'0 0.0
2017-Jun-04 23:29N 47°37' W 122°22'0 0.0
2017-Jun-04 23:00N 47°37' W 122°22'0 0.0
2017-Jun-04 22:28N 47°37' W 122°22'0 0.0
2017-Jun-04 21:58N 47°37' W 122°22'0 0.0
2017-Jun-04 21:28N 47°37' W 122°22'0 0.0
2017-Jun-04 20:58N 47°37' W 122°22'0 0.0
2017-Jun-04 20:28N 47°37' W 122°22'0 0.0
2017-Jun-04 19:58N 47°37' W 122°22'0 0.0
2017-Jun-04 19:28N 47°37' W 122°22'0 0.0
2017-Jun-04 18:58N 47°37' W 122°22'0 0.0
2017-Jun-04 18:28N 47°37' W 122°22'0 0.0
2017-Jun-04 17:58N 47°37' W 122°22'0 0.0
2017-Jun-04 17:28N 47°37' W 122°22'0 0.0
2017-Jun-04 16:58N 47°37' W 122°22'0 0.0
2017-Jun-04 16:28N 47°37' W 122°22'0 0.0
2017-Jun-04 15:58N 47°37' W 122°22'0 0.0
2017-Jun-04 15:28N 47°37' W 122°22'0 0.0
2017-Jun-04 14:58N 47°37' W 122°22'0 0.0
2017-Jun-04 13:58N 47°37' W 122°22'0 0.0
2017-Jun-04 13:28N 47°37' W 122°22'0 0.0
2017-Jun-04 12:58N 47°37' W 122°22'0 0.0
2017-Jun-04 12:28N 47°37' W 122°22'0 0.0
2017-Jun-04 11:58N 47°37' W 122°22'0 0.0
2017-Jun-04 11:28N 47°37' W 122°22'0 0.0
2017-Jun-04 10:58N 47°37' W 122°22'0 0.0
2017-Jun-04 10:28N 47°37' W 122°22'0 0.0
2017-Jun-04 09:58N 47°37' W 122°22'0 0.0
2017-Jun-04 09:28N 47°37' W 122°22'0 0.0
2017-Jun-04 08:58N 47°37' W 122°22'0 0.0
2017-Jun-04 08:28N 47°37' W 122°22'0 0.0
2017-Jun-04 07:58N 47°37' W 122°22'0 0.0
2017-Jun-04 07:28N 47°37' W 122°22'0 0.0
2017-Jun-04 06:58N 47°37' W 122°22'0 0.0
2017-Jun-04 06:28N 47°37' W 122°22'0 0.0
2017-Jun-04 05:58N 47°37' W 122°22'0 0.0
2017-Jun-04 05:28N 47°37' W 122°22'0 0.0
2017-Jun-04 04:58N 47°37' W 122°22'0 0.0
2017-Jun-04 04:28N 47°37' W 122°22'0 0.0
2017-Jun-04 03:58N 47°37' W 122°22'0 0.0
2017-Jun-04 03:28N 47°37' W 122°22'0 0.0
2017-Jun-04 02:58N 47°37' W 122°22'0 0.0
2017-Jun-04 02:28N 47°37' W 122°22'0 0.0
2017-Jun-04 01:58N 47°37' W 122°22'0 0.0
2017-Jun-04 01:28N 47°37' W 122°22'0 0.0
2017-Jun-04 00:55N 47°37' W 122°22'0 0.0
2017-Jun-04 00:28N 47°37' W 122°22'0 0.0
2017-Jun-03 23:55N 47°37' W 122°22'0 0.0
2017-Jun-03 23:28N 47°37' W 122°22'0 0.0
2017-Jun-03 22:52N 47°37' W 122°22'0 0.0
2017-Jun-03 22:28N 47°37' W 122°22'0 0.0
2017-Jun-03 21:58N 47°37' W 122°22'0 0.0
2017-Jun-03 21:28N 47°37' W 122°22'0 0.0
2017-Jun-03 20:58N 47°37' W 122°22'0 0.0
2017-Jun-03 20:25N 47°37' W 122°22'0 0.0
2017-Jun-03 19:58N 47°37' W 122°22'0 0.0
2017-Jun-03 19:28N 47°37' W 122°22'0 0.0
2017-Jun-03 18:58N 47°37' W 122°22'0 0.0
2017-Jun-03 18:25N 47°37' W 122°22'0 0.0
2017-Jun-03 17:58N 47°37' W 122°22'0 0.0
2017-Jun-03 17:25N 47°37' W 122°22'0 0.0
2017-Jun-03 16:58N 47°37' W 122°22'0 0.0
2017-Jun-03 16:22N 47°37' W 122°22'0 0.0
2017-Jun-03 15:58N 47°37' W 122°22'0 0.0
2017-Jun-03 15:28N 47°37' W 122°22'0 0.0
2017-Jun-03 14:58N 47°37' W 122°22'0 0.0
2017-Jun-03 13:55N 47°37' W 122°22'0 0.0
2017-Jun-03 13:28N 47°37' W 122°22'0 0.0
2017-Jun-03 12:58N 47°37' W 122°22'0 0.0
2017-Jun-03 12:28N 47°37' W 122°22'0 0.0
2017-Jun-03 11:58N 47°37' W 122°22'0 0.0
2017-Jun-03 11:28N 47°37' W 122°22'0 0.0
2017-Jun-03 10:58N 47°37' W 122°22'0 0.0
2017-Jun-03 10:28N 47°37' W 122°22'0 0.0
2017-Jun-03 09:58N 47°37' W 122°22'0 0.0
2017-Jun-03 09:28N 47°37' W 122°22'0 0.0
2017-Jun-03 08:58N 47°37' W 122°22'0 0.0
2017-Jun-03 08:28N 47°37' W 122°22'0 0.0
2017-Jun-03 07:58N 47°37' W 122°22'0 0.0
2017-Jun-03 07:28N 47°37' W 122°22'0 0.0
2017-Jun-03 06:58N 47°37' W 122°22'0 0.0
2017-Jun-03 06:28N 47°37' W 122°22'0 0.0
2017-Jun-03 05:58N 47°37' W 122°22'0 0.0
2017-Jun-03 05:28N 47°37' W 122°22'0 0.0
2017-Jun-03 04:58N 47°37' W 122°22'0 0.0
2017-Jun-03 04:28N 47°37' W 122°22'0 0.0
2017-Jun-03 03:58N 47°37' W 122°22'0 0.0
2017-Jun-03 03:28N 47°37' W 122°22'0 0.0
2017-Jun-03 02:58N 47°37' W 122°22'0 0.0
2017-Jun-03 02:28N 47°37' W 122°22'0 0.0
2017-Jun-03 01:58N 47°37' W 122°22'0 0.0
2017-Jun-03 01:28N 47°37' W 122°22'0 0.0
2017-Jun-03 00:58N 47°37' W 122°22'0 0.0
2017-Jun-03 00:28N 47°37' W 122°22'0 0.0
2017-Jun-02 23:58N 47°37' W 122°22'0 0.0
2017-Jun-02 23:28N 47°37' W 122°22'0 0.0
2017-Jun-02 22:58N 47°37' W 122°22'0 0.0
2017-Jun-02 22:28N 47°37' W 122°22'0 0.0
2017-Jun-02 21:58N 47°37' W 122°22'0 0.0
2017-Jun-02 21:28N 47°37' W 122°22'0 0.0
2017-Jun-02 20:58N 47°37' W 122°22'0 0.0
2017-Jun-02 20:28N 47°37' W 122°22'0 0.0
2017-Jun-02 19:58N 47°37' W 122°22'0 0.0
2017-Jun-02 19:28N 47°37' W 122°22'0 0.0
2017-Jun-02 18:58N 47°37' W 122°22'0 0.0
2017-Jun-02 18:28N 47°37' W 122°22'0 0.0
2017-Jun-02 17:58N 47°37' W 122°22'0 0.0
2017-Jun-02 17:28N 47°37' W 122°22'0 0.0
2017-Jun-02 16:58N 47°37' W 122°22'0 0.0
2017-Jun-02 16:28N 47°37' W 122°22'0 0.0
2017-Jun-02 15:58N 47°37' W 122°22'0 0.0
2017-Jun-02 15:28N 47°37' W 122°22'0 0.0
2017-Jun-02 14:58N 47°37' W 122°22'0 0.0
2017-Jun-02 14:28N 47°37' W 122°22'0 0.0
2017-Jun-02 13:28N 47°37' W 122°22'0 0.0
2017-Jun-02 12:58N 47°37' W 122°22'0 0.0
2017-Jun-02 12:28N 47°37' W 122°22'0 0.0
2017-Jun-02 11:58N 47°37' W 122°22'0 0.0
2017-Jun-02 11:28N 47°37' W 122°22'0 0.0
2017-Jun-02 10:58N 47°37' W 122°22'0 0.0
2017-Jun-02 10:28N 47°37' W 122°22'0 0.0
2017-Jun-02 09:58N 47°37' W 122°22'0 0.0
2017-Jun-02 09:28N 47°37' W 122°22'0 0.0
2017-Jun-02 08:58N 47°37' W 122°22'0 0.0
2017-Jun-02 08:28N 47°37' W 122°22'0 0.0
2017-Jun-02 07:58N 47°37' W 122°22'0 0.0
2017-Jun-02 07:28N 47°37' W 122°22'0 0.0
2017-Jun-02 06:58N 47°37' W 122°22'0 0.0
2017-Jun-02 06:28N 47°37' W 122°22'0 0.0
2017-Jun-02 05:58N 47°37' W 122°22'0 0.0
2017-Jun-02 05:28N 47°37' W 122°22'0 0.0
2017-Jun-02 04:58N 47°37' W 122°22'0 0.0
2017-Jun-02 04:28N 47°37' W 122°22'0 0.0
2017-Jun-02 03:58N 47°37' W 122°22'0 0.0
2017-Jun-02 03:28N 47°37' W 122°22'0 0.0
2017-Jun-02 02:58N 47°37' W 122°22'0 0.0
2017-Jun-02 02:28N 47°37' W 122°22'0 0.0
2017-Jun-02 01:58N 47°37' W 122°22'0 0.0
2017-Jun-02 01:28N 47°37' W 122°22'0 0.0
2017-Jun-02 00:58N 47°37' W 122°22'0 0.0
2017-Jun-02 00:28N 47°37' W 122°22'0 0.0
2017-Jun-01 23:58N 47°37' W 122°22'0 0.1
2017-Jun-01 23:28N 47°37' W 122°22'0 0.4
2017-Jun-01 22:58N 47°37' W 122°22'0 0.0
2017-Jun-01 22:28N 47°37' W 122°22'0 0.0
2017-Jun-01 21:58N 47°37' W 122°22'0 0.0
2017-Jun-01 21:28N 47°37' W 122°22'0 0.1
2017-Jun-01 20:58N 47°37' W 122°22'0 0.1
2017-Jun-01 20:28N 47°37' W 122°22'0 0.1
2017-Jun-01 19:58N 47°37' W 122°22'0 0.1
2017-Jun-01 19:28N 47°37' W 122°22'0 0.0
2017-Jun-01 18:58N 47°37' W 122°22'0 0.0
2017-Jun-01 18:28N 47°37' W 122°22'0 0.0
2017-Jun-01 17:58N 47°37' W 122°22'0 0.1
2017-Jun-01 17:28N 47°37' W 122°22'0 0.0
2017-Jun-01 16:58N 47°37' W 122°22'0 0.1
2017-Jun-01 16:28N 47°37' W 122°22'0 0.2
2017-Jun-01 15:58N 47°37' W 122°23'0 0.1
2017-Jun-01 15:28N 47°37' W 122°23'0 0.1
2017-Jun-01 14:58N 47°37' W 122°23'0 0.1
2017-Jun-01 13:58N 47°37' W 122°22'0 0.1
2017-Jun-01 13:28N 47°37' W 122°22'0 0.1
2017-Jun-01 12:58N 47°37' W 122°23'0 0.1
2017-Jun-01 12:28N 47°37' W 122°22'0 0.0
2017-Jun-01 11:58N 47°37' W 122°22'0 0.1
2017-Jun-01 11:28N 47°37' W 122°23'0 0.0
2017-Jun-01 10:58N 47°37' W 122°23'0 0.0
2017-Jun-01 10:28N 47°37' W 122°23'0 0.0
2017-Jun-01 09:58N 47°37' W 122°23'0 0.1
2017-Jun-01 09:28N 47°37' W 122°23'0 0.1
2017-Jun-01 08:58N 47°37' W 122°23'0 0.0
2017-Jun-01 08:28N 47°37' W 122°23'0 0.0
2017-Jun-01 07:58N 47°37' W 122°23'0 0.0
2017-Jun-01 07:28N 47°37' W 122°23'0 0.0
2017-Jun-01 06:58N 47°37' W 122°23'0 0.0
2017-Jun-01 06:28N 47°37' W 122°23'0 0.0
2017-Jun-01 05:58N 47°37' W 122°23'0 0.0
2017-Jun-01 05:28N 47°37' W 122°23'0 0.2
2017-Jun-01 04:58N 47°37' W 122°22'0 0.1
2017-Jun-01 04:28N 47°37' W 122°22'0 0.0
2017-Jun-01 03:58N 47°37' W 122°22'0 0.1
2017-Jun-01 03:28N 47°37' W 122°22'0 0.1
2017-Jun-01 02:58N 47°37' W 122°22'0 0.0
2017-Jun-01 02:28N 47°37' W 122°22'0 0.0
2017-Jun-01 01:58N 47°37' W 122°22'0 0.0
2017-Jun-01 01:28N 47°37' W 122°22'0 0.0
2017-Jun-01 00:58N 47°37' W 122°22'0 0.0
2017-Jun-01 00:28N 47°37' W 122°22'0 0.1
2017-May-31 23:58N 47°37' W 122°22'0 0.2
2017-May-31 23:28N 47°37' W 122°22'0 0.2
2017-May-31 22:58N 47°37' W 122°23'0 0.0
2017-May-31 22:28N 47°37' W 122°23'0 0.0
2017-May-31 21:58N 47°37' W 122°23'0 0.0
2017-May-31 21:28N 47°37' W 122°23'0 0.0
2017-May-31 20:58N 47°37' W 122°23'0 0.0
2017-May-31 20:28N 47°37' W 122°23'0 0.1
2017-May-31 19:58N 47°37' W 122°23'0 0.0
2017-May-31 19:28N 47°37' W 122°23'0 0.1
2017-May-31 18:58N 47°37' W 122°23'0 0.0
2017-May-31 18:28N 47°37' W 122°23'0 0.0
2017-May-31 17:58N 47°37' W 122°23'0 0.1
2017-May-31 17:28N 47°37' W 122°22'0 0.0
2017-May-31 16:58N 47°37' W 122°22'0 0.1
2017-May-31 16:25N 47°37' W 122°22'0 0.1
2017-May-31 15:58N 47°37' W 122°22'0 0.1
2017-May-31 15:28N 47°37' W 122°22'0 0.1
2017-May-31 14:58N 47°37' W 122°22'0 0.0
2017-May-31 13:58N 47°37' W 122°22'0 0.3
2017-May-31 13:28N 47°37' W 122°22'0 0.1
2017-May-31 12:58N 47°37' W 122°22'0 0.0
2017-May-31 12:28N 47°37' W 122°22'0 0.1
2017-May-31 11:58N 47°37' W 122°23'0 0.0
2017-May-31 11:28N 47°37' W 122°23'0 0.0
2017-May-31 10:58N 47°37' W 122°23'0 0.0
2017-May-31 10:28N 47°37' W 122°23'0 0.0
2017-May-31 09:58N 47°37' W 122°23'0 0.0
2017-May-31 09:28N 47°37' W 122°23'0 0.0
2017-May-31 08:58N 47°37' W 122°23'0 0.2
2017-May-31 08:28N 47°37' W 122°22'0 0.0
2017-May-31 07:58N 47°37' W 122°22'0 0.0
2017-May-31 07:28N 47°37' W 122°22'0 0.0
2017-May-31 06:58N 47°37' W 122°22'0 0.0
2017-May-31 06:28N 47°37' W 122°22'0 0.1
2017-May-31 05:58N 47°37' W 122°22'0 0.1
2017-May-31 05:28N 47°37' W 122°23'0 0.1
2017-May-31 04:58N 47°37' W 122°23'0 0.0
2017-May-31 04:28N 47°37' W 122°23'0 0.0
2017-May-31 03:58N 47°37' W 122°23'0 0.1
2017-May-31 03:28N 47°37' W 122°23'0 0.0
2017-May-31 02:58N 47°37' W 122°23'0 0.2
2017-May-31 02:28N 47°37' W 122°23'0 0.2
2017-May-31 01:58N 47°37' W 122°23'0 0.2
2017-May-31 01:28N 47°37' W 122°22'0 0.1
2017-May-31 00:58N 47°37' W 122°22'0 0.2
2017-May-31 00:28N 47°37' W 122°22'0 0.2
2017-May-30 23:58N 47°37' W 122°22'0 0.1
2017-May-30 23:28N 47°37' W 122°22'0 0.1
2017-May-30 22:58N 47°37' W 122°22'0 0.0
2017-May-30 22:28N 47°37' W 122°22'0 0.1
2017-May-30 21:58N 47°37' W 122°23'0 0.1
2017-May-30 21:28N 47°37' W 122°22'0 0.0
2017-May-30 20:58N 47°37' W 122°22'0 0.1
2017-May-30 20:28N 47°37' W 122°23'0 0.0
2017-May-30 19:58N 47°37' W 122°23'0 0.1
2017-May-30 19:28N 47°37' W 122°22'0 0.2
2017-May-30 18:58N 47°37' W 122°22'0 0.1
2017-May-30 18:28N 47°37' W 122°22'0 0.1
2017-May-30 17:58N 47°37' W 122°22'0 0.1
2017-May-30 17:28N 47°37' W 122°23'0 0.0
2017-May-30 16:58N 47°37' W 122°23'0 0.0
2017-May-30 16:28N 47°37' W 122°23'0 0.2
2017-May-30 15:58N 47°37' W 122°22'0 0.0
2017-May-30 15:28N 47°37' W 122°22'0 0.3
2017-May-30 14:58N 47°37' W 122°22'0 0.0
2017-May-30 13:58N 47°37' W 122°22'0 0.1
2017-May-30 13:28N 47°37' W 122°22'0 0.1
2017-May-30 12:58N 47°37' W 122°22'0 0.0
2017-May-30 12:28N 47°37' W 122°22'0 0.1
2017-May-30 11:58N 47°37' W 122°22'0 0.2
2017-May-30 11:28N 47°37' W 122°22'0 0.1
2017-May-30 10:55N 47°37' W 122°22'0 0.1
2017-May-30 10:28N 47°37' W 122°22'0 0.1
2017-May-30 09:58N 47°37' W 122°22'0 0.0
2017-May-30 09:28N 47°37' W 122°22'0 0.2
2017-May-30 08:58N 47°37' W 122°22'0 0.1
2017-May-30 08:25N 47°37' W 122°22'0 0.1
2017-May-30 07:58N 47°37' W 122°22'0 0.0
2017-May-30 07:28N 47°37' W 122°22'0 0.0
2017-May-30 06:58N 47°37' W 122°22'0 0.0
2017-May-30 06:30N 47°37' W 122°22'0 0.0
2017-May-30 06:00N 47°37' W 122°22'0 0.1
2017-May-30 05:30N 47°37' W 122°22'0 0.2
2017-May-30 05:00N 47°37' W 122°23'0 0.2
2017-May-30 04:30N 47°37' W 122°23'2 3.6
2017-May-30 04:00N 47°38' W 122°25'510.1
2017-May-30 03:30N 47°42' W 122°28'713.8
2017-May-30 03:01N 47°49' W 122°28'714.6
2017-May-30 02:31N 47°56' W 122°32'815.5
2017-May-30 02:01N 48°02' W 122°39'815.4
2017-May-30 01:30N 48°09' W 122°44'815.4
2017-May-30 01:00N 48°11' W 122°55'714.7
2017-May-30 00:30N 48°12' W 123°06'714.8
2017-May-30 00:00N 48°11' W 123°17'510.0
2017-May-29 23:28N 48°10' W 123°25'3 5.9
2017-May-29 22:56N 48°12' W 123°29'4 8.2
2017-May-29 22:29N 48°13' W 123°35'611.6
2017-May-29 21:58N 48°13' W 123°44'511.6
2017-May-29 21:31N 48°14' W 123°52'510.6
2017-May-29 21:00N 48°15' W 123°59'612.4
2017-May-29 20:30N 48°17' W 124°08'611.6
2017-May-29 20:01N 48°20' W 124°16'511.0
2017-May-29 19:31N 48°22' W 124°23'511.0
2017-May-29 19:01N 48°24' W 124°31'510.8
2017-May-29 18:31N 48°27' W 124°38'5 9.9
2017-May-29 18:00N 48°29' W 124°45'510.1
2017-May-29 17:30N 48°29' W 124°53'5 9.6
2017-May-29 17:00N 48°28' W 124°60'510.7
2017-May-29 16:30N 48°28' W 125°08'612.2
2017-May-29 16:01N 48°28' W 125°17'612.1
2017-May-29 15:30N 48°29' W 125°26'611.5
2017-May-29 15:00N 48°31' W 125°34'1211.7
2017-May-29 14:01N 48°34' W 125°51'612.1
2017-May-29 13:30N 48°35' W 126°00'612.0
2017-May-29 13:00N 48°36' W 126°09'612.1
2017-May-29 12:31N 48°38' W 126°18'611.8
2017-May-29 12:01N 48°39' W 126°27'611.8
2017-May-29 11:30N 48°41' W 126°36'612.3
2017-May-29 11:00N 48°42' W 126°44'612.1
2017-May-29 10:30N 48°44' W 126°54'611.9
2017-May-29 10:00N 48°45' W 127°02'1311.8
2017-May-29 08:54N 48°48' W 127°21'712.2
2017-May-29 08:19N 48°50' W 127°32'512.0
2017-May-29 07:53N 48°51' W 127°39'812.0
2017-May-29 07:12N 48°53' W 127°52'  

Dump ship's entire track history